sensor_id;sensor_type;location;lat;lon;timestamp;pressure;altitude;pressure_sealevel;temperature;humidity
30873;BME280;17579;42.690;2.586;2023-03-15T00:02:18;97218.69;;;12.62;43.19
30873;BME280;17579;42.690;2.586;2023-03-15T00:04:46;97208.09;;;12.62;43.12
30873;BME280;17579;42.690;2.586;2023-03-15T00:07:12;97219.38;;;12.64;43.14
30873;BME280;17579;42.690;2.586;2023-03-15T00:09:37;97206.13;;;12.64;43.44
30873;BME280;17579;42.690;2.586;2023-03-15T00:12:03;97211.25;;;12.66;43.15
30873;BME280;17579;42.690;2.586;2023-03-15T00:14:29;97218.38;;;12.65;43.34
30873;BME280;17579;42.690;2.586;2023-03-15T00:16:55;97200.13;;;12.62;42.58
30873;BME280;17579;42.690;2.586;2023-03-15T00:19:21;97212.72;;;12.60;42.23
30873;BME280;17579;42.690;2.586;2023-03-15T00:21:46;97207.44;;;12.60;42.30
30873;BME280;17579;42.690;2.586;2023-03-15T00:24:12;97210.25;;;12.59;41.36
30873;BME280;17579;42.690;2.586;2023-03-15T00:26:38;97198.13;;;12.56;41.51
30873;BME280;17579;42.690;2.586;2023-03-15T00:29:03;97189.63;;;12.53;41.04
30873;BME280;17579;42.690;2.586;2023-03-15T00:31:29;97206.41;;;12.53;40.74
30873;BME280;17579;42.690;2.586;2023-03-15T00:33:54;97210.03;;;12.52;40.44
30873;BME280;17579;42.690;2.586;2023-03-15T00:36:21;97208.19;;;12.53;40.21
30873;BME280;17579;42.690;2.586;2023-03-15T00:38:48;97210.72;;;12.54;40.33
30873;BME280;17579;42.690;2.586;2023-03-15T00:41:16;97219.34;;;12.56;39.92
30873;BME280;17579;42.690;2.586;2023-03-15T00:43:42;97227.97;;;12.58;39.69
30873;BME280;17579;42.690;2.586;2023-03-15T00:46:09;97232.28;;;12.59;39.99
30873;BME280;17579;42.690;2.586;2023-03-15T00:48:35;97227.97;;;12.58;40.08
30873;BME280;17579;42.690;2.586;2023-03-15T00:51:17;97222.97;;;12.55;40.88
30873;BME280;17579;42.690;2.586;2023-03-15T00:53:44;97235.63;;;12.61;40.18
30873;BME280;17579;42.690;2.586;2023-03-15T00:56:13;97236.78;;;12.59;40.34
30873;BME280;17579;42.690;2.586;2023-03-15T00:58:39;97227.31;;;12.56;40.56
30873;BME280;17579;42.690;2.586;2023-03-15T01:01:07;97229.59;;;12.51;40.54
30873;BME280;17579;42.690;2.586;2023-03-15T01:03:33;97222.78;;;12.48;40.67
30873;BME280;17579;42.690;2.586;2023-03-15T01:06:04;97234.88;;;12.43;40.97
30873;BME280;17579;42.690;2.586;2023-03-15T01:08:30;97239.16;;;12.44;40.95
30873;BME280;17579;42.690;2.586;2023-03-15T01:11:01;97222.75;;;12.40;40.98
30873;BME280;17579;42.690;2.586;2023-03-15T01:13:26;97216.63;;;12.40;40.91
30873;BME280;17579;42.690;2.586;2023-03-15T01:15:52;97227.22;;;12.40;40.99
30873;BME280;17579;42.690;2.586;2023-03-15T01:18:17;97236.47;;;12.36;40.97
30873;BME280;17579;42.690;2.586;2023-03-15T01:20:43;97237.31;;;12.36;41.07
30873;BME280;17579;42.690;2.586;2023-03-15T01:23:09;97238.81;;;12.39;40.83
30873;BME280;17579;42.690;2.586;2023-03-15T01:25:35;97231.38;;;12.42;40.82
30873;BME280;17579;42.690;2.586;2023-03-15T01:28:00;97238.19;;;12.45;40.96
30873;BME280;17579;42.690;2.586;2023-03-15T01:30:26;97237.69;;;12.50;40.77
30873;BME280;17579;42.690;2.586;2023-03-15T01:32:52;97238.22;;;12.53;40.68
30873;BME280;17579;42.690;2.586;2023-03-15T01:35:17;97229.63;;;12.59;40.44
30873;BME280;17579;42.690;2.586;2023-03-15T01:37:43;97223.84;;;12.64;40.27
30873;BME280;17579;42.690;2.586;2023-03-15T01:40:11;97230.66;;;12.67;40.41
30873;BME280;17579;42.690;2.586;2023-03-15T01:47:50;97220.28;;;12.81;39.93
30873;BME280;17579;42.690;2.586;2023-03-15T01:50:17;97217.81;;;12.88;39.70
30873;BME280;17579;42.690;2.586;2023-03-15T01:52:43;97219.16;;;12.92;39.51
30873;BME280;17579;42.690;2.586;2023-03-15T01:55:12;97226.31;;;12.92;39.87
30873;BME280;17579;42.690;2.586;2023-03-15T01:57:45;97216.50;;;12.92;39.93
30873;BME280;17579;42.690;2.586;2023-03-15T02:00:16;97217.03;;;12.96;39.89
30873;BME280;17579;42.690;2.586;2023-03-15T02:02:46;97211.03;;;12.94;40.04
30873;BME280;17579;42.690;2.586;2023-03-15T02:05:20;97210.88;;;12.95;40.13
30873;BME280;17579;42.690;2.586;2023-03-15T02:07:47;97213.88;;;13.00;40.10
30873;BME280;17579;42.690;2.586;2023-03-15T02:10:31;97206.41;;;12.96;40.26
30873;BME280;17579;42.690;2.586;2023-03-15T02:12:58;97202.94;;;13.04;39.91
30873;BME280;17579;42.690;2.586;2023-03-15T02:15:24;97208.41;;;13.02;40.32
30873;BME280;17579;42.690;2.586;2023-03-15T02:17:49;97202.94;;;13.04;40.13
30873;BME280;17579;42.690;2.586;2023-03-15T02:20:37;97206.56;;;12.94;40.35
30873;BME280;17579;42.690;2.586;2023-03-15T02:23:07;97202.56;;;12.98;40.12
30873;BME280;17579;42.690;2.586;2023-03-15T02:28:04;97200.94;;;12.97;40.19
30873;BME280;17579;42.690;2.586;2023-03-15T02:30:31;97200.44;;;13.02;40.03
30873;BME280;17579;42.690;2.586;2023-03-15T02:32:58;97192.47;;;13.02;40.11
30873;BME280;17579;42.690;2.586;2023-03-15T02:35:28;97206.72;;;13.01;40.10
30873;BME280;17579;42.690;2.586;2023-03-15T02:37:55;97193.63;;;12.99;40.08
30873;BME280;17579;42.690;2.586;2023-03-15T02:40:22;97197.09;;;13.00;40.24
30873;BME280;17579;42.690;2.586;2023-03-15T02:42:55;97196.44;;;12.98;40.11
30873;BME280;17579;42.690;2.586;2023-03-15T02:45:22;97195.28;;;13.00;40.01
30873;BME280;17579;42.690;2.586;2023-03-15T02:47:50;97191.13;;;12.98;39.88
30873;BME280;17579;42.690;2.586;2023-03-15T02:50:16;97194.44;;;13.00;40.06
30873;BME280;17579;42.690;2.586;2023-03-15T02:52:42;97196.63;;;13.05;40.03
30873;BME280;17579;42.690;2.586;2023-03-15T02:55:07;97189.66;;;13.04;40.25
30873;BME280;17579;42.690;2.586;2023-03-15T02:57:33;97189.97;;;13.00;40.14
30873;BME280;17579;42.690;2.586;2023-03-15T02:59:59;97180.03;;;13.03;39.85
30873;BME280;17579;42.690;2.586;2023-03-15T03:02:30;97181.03;;;13.02;40.04
30873;BME280;17579;42.690;2.586;2023-03-15T03:04:56;97180.88;;;13.03;40.24
30873;BME280;17579;42.690;2.586;2023-03-15T03:07:21;97188.66;;;13.05;40.27
30873;BME280;17579;42.690;2.586;2023-03-15T03:09:47;97191.16;;;13.06;40.38
30873;BME280;17579;42.690;2.586;2023-03-15T03:12:12;97193.81;;;13.06;40.29
30873;BME280;17579;42.690;2.586;2023-03-15T03:14:38;97194.63;;;13.07;40.63
30873;BME280;17579;42.690;2.586;2023-03-15T03:17:03;97192.97;;;13.06;40.33
30873;BME280;17579;42.690;2.586;2023-03-15T03:19:29;97193.97;;;13.05;40.60
30873;BME280;17579;42.690;2.586;2023-03-15T03:21:55;97191.16;;;13.06;40.45
30873;BME280;17579;42.690;2.586;2023-03-15T03:24:21;97196.31;;;13.08;40.38
30873;BME280;17579;42.690;2.586;2023-03-15T03:26:50;97193.31;;;13.11;40.63
30873;BME280;17579;42.690;2.586;2023-03-15T03:29:15;97196.16;;;13.09;40.38
30873;BME280;17579;42.690;2.586;2023-03-15T03:31:41;97200.13;;;13.13;40.49
30873;BME280;17579;42.690;2.586;2023-03-15T03:34:07;97191.03;;;13.16;40.50
30873;BME280;17579;42.690;2.586;2023-03-15T03:36:35;97195.66;;;13.14;40.06
30873;BME280;17579;42.690;2.586;2023-03-15T03:39:01;97203.63;;;13.14;39.95
30873;BME280;17579;42.690;2.586;2023-03-15T03:41:27;97199.66;;;13.18;40.21
30873;BME280;17579;42.690;2.586;2023-03-15T03:43:53;97196.81;;;13.20;39.95
30873;BME280;17579;42.690;2.586;2023-03-15T03:46:18;97201.81;;;13.23;39.71
30873;BME280;17579;42.690;2.586;2023-03-15T03:48:44;97201.63;;;13.24;39.94
30873;BME280;17579;42.690;2.586;2023-03-15T03:51:10;97202.31;;;13.26;39.62
30873;BME280;17579;42.690;2.586;2023-03-15T03:53:35;97210.13;;;13.28;39.96
30873;BME280;17579;42.690;2.586;2023-03-15T03:56:04;97204.66;;;13.29;39.83
30873;BME280;17579;42.690;2.586;2023-03-15T03:58:29;97206.97;;;13.32;39.66
30873;BME280;17579;42.690;2.586;2023-03-15T04:00:55;97208.50;;;13.35;39.82
30873;BME280;17579;42.690;2.586;2023-03-15T04:03:21;97207.34;;;13.38;39.62
30873;BME280;17579;42.690;2.586;2023-03-15T04:05:52;97212.69;;;13.38;40.05
30873;BME280;17579;42.690;2.586;2023-03-15T04:08:18;97216.97;;;13.39;40.16
30873;BME280;17579;42.690;2.586;2023-03-15T04:10:44;97215.34;;;13.38;40.88
30873;BME280;17579;42.690;2.586;2023-03-15T04:13:09;97221.63;;;13.37;40.64
30873;BME280;17579;42.690;2.586;2023-03-15T04:15:35;97223.59;;;13.34;41.02
30873;BME280;17579;42.690;2.586;2023-03-15T04:18:00;97220.41;;;13.31;41.10
30873;BME280;17579;42.690;2.586;2023-03-15T04:20:30;97214.25;;;13.22;41.12
30873;BME280;17579;42.690;2.586;2023-03-15T04:22:59;97217.25;;;13.19;41.61
30873;BME280;17579;42.690;2.586;2023-03-15T04:25:26;97226.19;;;13.18;41.49
30873;BME280;17579;42.690;2.586;2023-03-15T04:27:52;97218.41;;;13.16;41.81
30873;BME280;17579;42.690;2.586;2023-03-15T04:30:21;97221.56;;;13.12;41.71
30873;BME280;17579;42.690;2.586;2023-03-15T04:32:52;97216.91;;;13.14;41.77
30873;BME280;17579;42.690;2.586;2023-03-15T04:35:25;97212.28;;;13.16;41.54
30873;BME280;17579;42.690;2.586;2023-03-15T04:37:51;97206.78;;;13.17;41.98
30873;BME280;17579;42.690;2.586;2023-03-15T04:40:17;97199.00;;;13.16;41.86
30873;BME280;17579;42.690;2.586;2023-03-15T04:42:42;97208.94;;;13.14;41.83
30873;BME280;17579;42.690;2.586;2023-03-15T04:45:08;97208.28;;;13.12;41.81
30873;BME280;17579;42.690;2.586;2023-03-15T04:47:35;97211.59;;;13.14;42.13
30873;BME280;17579;42.690;2.586;2023-03-15T04:50:01;97220.53;;;13.13;42.23
30873;BME280;17579;42.690;2.586;2023-03-15T04:52:27;97218.72;;;13.13;42.13
30873;BME280;17579;42.690;2.586;2023-03-15T04:54:52;97215.91;;;13.15;42.06
30873;BME280;17579;42.690;2.586;2023-03-15T04:57:18;97216.72;;;13.15;41.81
30873;BME280;17579;42.690;2.586;2023-03-15T04:59:43;97209.63;;;13.16;42.32
30873;BME280;17579;42.690;2.586;2023-03-15T05:02:09;97213.75;;;13.18;42.21
30873;BME280;17579;42.690;2.586;2023-03-15T05:04:34;97203.66;;;13.22;41.77
30873;BME280;17579;42.690;2.586;2023-03-15T05:07:00;97207.28;;;13.21;41.92
30873;BME280;17579;42.690;2.586;2023-03-15T05:09:26;97223.75;;;13.25;41.85
30873;BME280;17579;42.690;2.586;2023-03-15T05:11:51;97217.25;;;13.27;41.81
30873;BME280;17579;42.690;2.586;2023-03-15T05:14:17;97225.75;;;13.31;41.76
30873;BME280;17579;42.690;2.586;2023-03-15T05:16:42;97217.44;;;13.34;41.82
30873;BME280;17579;42.690;2.586;2023-03-15T05:19:08;97229.38;;;13.30;42.08
30873;BME280;17579;42.690;2.586;2023-03-15T05:21:33;97222.72;;;13.26;42.37
30873;BME280;17579;42.690;2.586;2023-03-15T05:23:59;97223.38;;;13.20;42.27
30873;BME280;17579;42.690;2.586;2023-03-15T05:26:25;97213.25;;;13.15;42.46
30873;BME280;17579;42.690;2.586;2023-03-15T05:28:50;97227.69;;;13.12;42.52
30873;BME280;17579;42.690;2.586;2023-03-15T05:31:16;97219.88;;;13.11;42.88
30873;BME280;17579;42.690;2.586;2023-03-15T05:33:42;97209.25;;;13.11;42.54
30873;BME280;17579;42.690;2.586;2023-03-15T05:36:12;97219.22;;;13.09;42.60
30873;BME280;17579;42.690;2.586;2023-03-15T05:38:40;97211.25;;;13.09;42.85
30873;BME280;17579;42.690;2.586;2023-03-15T05:41:07;97216.03;;;13.05;42.84
30873;BME280;17579;42.690;2.586;2023-03-15T05:43:33;97210.91;;;13.04;42.92
30873;BME280;17579;42.690;2.586;2023-03-15T05:45:58;97207.41;;;13.03;43.26
30873;BME280;17579;42.690;2.586;2023-03-15T05:48:24;97213.56;;;13.04;42.97
30873;BME280;17579;42.690;2.586;2023-03-15T05:50:50;97215.38;;;13.03;43.10
30873;BME280;17579;42.690;2.586;2023-03-15T05:53:15;97219.53;;;13.06;43.17
30873;BME280;17579;42.690;2.586;2023-03-15T05:55:41;97220.03;;;13.09;42.72
30873;BME280;17579;42.690;2.586;2023-03-15T05:58:06;97228.81;;;13.10;43.08
30873;BME280;17579;42.690;2.586;2023-03-15T06:00:32;97225.84;;;13.13;42.99
30873;BME280;17579;42.690;2.586;2023-03-15T06:02:58;97210.75;;;13.13;43.82
30873;BME280;17579;42.690;2.586;2023-03-15T06:05:23;97214.56;;;13.11;43.90
30873;BME280;17579;42.690;2.586;2023-03-15T06:07:49;97211.25;;;13.09;43.83
30873;BME280;17579;42.690;2.586;2023-03-15T06:10:15;97225.53;;;13.08;43.94
30873;BME280;17579;42.690;2.586;2023-03-15T06:12:40;97220.22;;;13.08;43.74
30873;BME280;17579;42.690;2.586;2023-03-15T06:15:06;97213.22;;;13.07;44.03
30873;BME280;17579;42.690;2.586;2023-03-15T06:17:32;97208.72;;;13.07;44.00
30873;BME280;17579;42.690;2.586;2023-03-15T06:19:58;97208.91;;;13.06;44.14
30873;BME280;17579;42.690;2.586;2023-03-15T06:22:23;97221.53;;;13.04;43.98
30873;BME280;17579;42.690;2.586;2023-03-15T06:24:49;97207.59;;;13.02;44.20
30873;BME280;17579;42.690;2.586;2023-03-15T06:27:14;97209.38;;;13.01;44.10
30873;BME280;17579;42.690;2.586;2023-03-15T06:29:40;97221.69;;;13.02;44.47
30873;BME280;17579;42.690;2.586;2023-03-15T06:32:06;97215.38;;;13.03;44.38
30873;BME280;17579;42.690;2.586;2023-03-15T06:34:31;97222.81;;;12.99;44.66
30873;BME280;17579;42.690;2.586;2023-03-15T06:36:57;97228.66;;;13.03;44.39
30873;BME280;17579;42.690;2.586;2023-03-15T06:39:31;97225.16;;;13.03;44.27
30873;BME280;17579;42.690;2.586;2023-03-15T06:42:00;97231.00;;;13.06;44.39
30873;BME280;17579;42.690;2.586;2023-03-15T06:44:27;97239.13;;;13.05;44.56
30873;BME280;17579;42.690;2.586;2023-03-15T06:46:53;97249.91;;;13.03;44.97
30873;BME280;17579;42.690;2.586;2023-03-15T06:49:19;97241.09;;;13.03;45.16
30873;BME280;17579;42.690;2.586;2023-03-15T06:51:44;97250.06;;;13.02;45.12
30873;BME280;17579;42.690;2.586;2023-03-15T06:54:10;97249.53;;;12.98;45.56
30873;BME280;17579;42.690;2.586;2023-03-15T06:56:36;97248.56;;;12.99;45.80
30873;BME280;17579;42.690;2.586;2023-03-15T06:59:02;97237.44;;;13.04;45.83
30873;BME280;17579;42.690;2.586;2023-03-15T07:01:28;97249.56;;;13.06;46.08
30873;BME280;17579;42.690;2.586;2023-03-15T07:03:54;97242.28;;;13.08;45.98
30873;BME280;17579;42.690;2.586;2023-03-15T07:06:20;97239.28;;;13.11;45.81
30873;BME280;17579;42.690;2.586;2023-03-15T07:08:45;97251.41;;;13.14;45.70
30873;BME280;17579;42.690;2.586;2023-03-15T07:11:12;97251.94;;;13.17;45.93
30873;BME280;17579;42.690;2.586;2023-03-15T07:13:37;97247.47;;;13.26;45.61
30873;BME280;17579;42.690;2.586;2023-03-15T07:16:03;97245.69;;;13.35;46.13
30873;BME280;17579;42.690;2.586;2023-03-15T07:18:30;97262.50;;;13.44;45.86
30873;BME280;17579;42.690;2.586;2023-03-15T07:20:58;97250.53;;;13.48;45.21
30873;BME280;17579;42.690;2.586;2023-03-15T07:23:24;97260.69;;;13.52;45.71
30873;BME280;17579;42.690;2.586;2023-03-15T07:25:50;97270.31;;;13.62;45.67
30873;BME280;17579;42.690;2.586;2023-03-15T07:28:16;97267.34;;;13.65;45.62
30873;BME280;17579;42.690;2.586;2023-03-15T07:30:42;97263.69;;;13.66;45.67
30873;BME280;17579;42.690;2.586;2023-03-15T07:33:07;97271.84;;;13.73;45.46
30873;BME280;17579;42.690;2.586;2023-03-15T07:35:33;97271.66;;;13.74;45.74
30873;BME280;17579;42.690;2.586;2023-03-15T07:37:58;97267.88;;;13.85;46.24
30873;BME280;17579;42.690;2.586;2023-03-15T07:40:24;97272.00;;;13.96;45.94
30873;BME280;17579;42.690;2.586;2023-03-15T07:42:51;97278.16;;;13.96;45.59
30873;BME280;17579;42.690;2.586;2023-03-15T07:45:16;97282.66;;;13.96;46.10
30873;BME280;17579;42.690;2.586;2023-03-15T07:47:42;97279.66;;;13.99;45.92
30873;BME280;17579;42.690;2.586;2023-03-15T07:50:08;97293.28;;;14.04;45.96
30873;BME280;17579;42.690;2.586;2023-03-15T07:52:34;97286.97;;;14.13;45.81
30873;BME280;17579;42.690;2.586;2023-03-15T07:54:59;97285.13;;;14.22;45.77
30873;BME280;17579;42.690;2.586;2023-03-15T07:57:25;97295.28;;;14.27;45.50
30873;BME280;17579;42.690;2.586;2023-03-15T07:59:51;97292.28;;;14.38;45.88
30873;BME280;17579;42.690;2.586;2023-03-15T08:02:17;97285.59;;;14.42;45.64
30873;BME280;17579;42.690;2.586;2023-03-15T08:04:43;97297.09;;;14.43;45.69
30873;BME280;17579;42.690;2.586;2023-03-15T08:07:09;97302.72;;;14.48;45.89
30873;BME280;17579;42.690;2.586;2023-03-15T08:09:35;97290.41;;;14.55;46.09
30873;BME280;17579;42.690;2.586;2023-03-15T08:12:01;97275.13;;;14.57;45.54
30873;BME280;17579;42.690;2.586;2023-03-15T08:14:27;97288.78;;;14.46;45.69
30873;BME280;17579;42.690;2.586;2023-03-15T08:16:53;97289.13;;;14.43;45.99
30873;BME280;17579;42.690;2.586;2023-03-15T08:19:22;97278.47;;;14.43;46.08
30873;BME280;17579;42.690;2.586;2023-03-15T08:21:47;97288.44;;;14.41;46.42
30873;BME280;17579;42.690;2.586;2023-03-15T08:24:13;97276.63;;;14.43;47.05
30873;BME280;17579;42.690;2.586;2023-03-15T08:26:40;97277.13;;;14.47;46.88
30873;BME280;17579;42.690;2.586;2023-03-15T08:29:07;97276.78;;;14.50;46.86
30873;BME280;17579;42.690;2.586;2023-03-15T08:31:33;97262.97;;;14.54;46.75
30873;BME280;17579;42.690;2.586;2023-03-15T08:33:59;97274.09;;;14.58;47.38
30873;BME280;17579;42.690;2.586;2023-03-15T08:36:24;97270.97;;;14.63;46.99
30873;BME280;17579;42.690;2.586;2023-03-15T08:38:50;97274.28;;;14.65;47.26
30873;BME280;17579;42.690;2.586;2023-03-15T08:41:15;97273.94;;;14.68;48.29
30873;BME280;17579;42.690;2.586;2023-03-15T08:43:41;97265.94;;;14.76;47.94
30873;BME280;17579;42.690;2.586;2023-03-15T08:46:07;97270.91;;;14.79;47.79
30873;BME280;17579;42.690;2.586;2023-03-15T08:48:33;97267.56;;;14.85;47.77
30873;BME280;17579;42.690;2.586;2023-03-15T08:51:00;97263.56;;;14.89;47.83
30873;BME280;17579;42.690;2.586;2023-03-15T08:53:27;97262.72;;;14.97;47.62
30873;BME280;17579;42.690;2.586;2023-03-15T08:55:52;97263.19;;;15.01;47.30
30873;BME280;17579;42.690;2.586;2023-03-15T08:58:18;97269.81;;;15.05;47.66
30873;BME280;17579;42.690;2.586;2023-03-15T09:00:44;97276.66;;;15.07;47.69
30873;BME280;17579;42.690;2.586;2023-03-15T09:03:09;97277.63;;;15.15;47.50
30873;BME280;17579;42.690;2.586;2023-03-15T09:05:35;97272.75;;;15.18;47.66
30873;BME280;17579;42.690;2.586;2023-03-15T09:08:01;97274.75;;;15.24;46.82
30873;BME280;17579;42.690;2.586;2023-03-15T09:10:27;97282.22;;;15.29;47.28
30873;BME280;17579;42.690;2.586;2023-03-15T09:12:53;97270.66;;;15.37;46.87
30873;BME280;17579;42.690;2.586;2023-03-15T09:15:18;97270.31;;;15.40;47.19
30873;BME280;17579;42.690;2.586;2023-03-15T09:17:44;97273.59;;;15.50;47.19
30873;BME280;17579;42.690;2.586;2023-03-15T09:20:12;97264.72;;;15.58;46.67
30873;BME280;17579;42.690;2.586;2023-03-15T09:22:39;97281.03;;;15.63;46.58
30873;BME280;17579;42.690;2.586;2023-03-15T09:25:06;97276.34;;;15.65;46.80
30873;BME280;17579;42.690;2.586;2023-03-15T09:27:45;97271.13;;;15.72;46.43
30873;BME280;17579;42.690;2.586;2023-03-15T09:30:11;97280.13;;;15.79;46.31
30873;BME280;17579;42.690;2.586;2023-03-15T09:32:37;97277.56;;;15.86;46.64
30873;BME280;17579;42.690;2.586;2023-03-15T09:35:05;97281.84;;;15.95;46.88
30873;BME280;17579;42.690;2.586;2023-03-15T09:37:31;97284.97;;;15.99;46.83
30873;BME280;17579;42.690;2.586;2023-03-15T09:39:57;97286.44;;;16.01;46.90
30873;BME280;17579;42.690;2.586;2023-03-15T09:42:46;97286.94;;;16.05;46.92
30873;BME280;17579;42.690;2.586;2023-03-15T09:45:30;97296.56;;;16.06;46.57
30873;BME280;17579;42.690;2.586;2023-03-15T09:48:08;97278.00;;;15.98;46.86
30873;BME280;17579;42.690;2.586;2023-03-15T09:50:44;97285.13;;;15.97;46.99
30873;BME280;17579;42.690;2.586;2023-03-15T09:53:18;97272.09;;;16.02;47.36
30873;BME280;17579;42.690;2.586;2023-03-15T09:55:47;97275.22;;;16.06;47.24
30873;BME280;17579;42.690;2.586;2023-03-15T09:58:17;97273.41;;;16.06;47.00
30873;BME280;17579;42.690;2.586;2023-03-15T10:00:47;97279.03;;;16.11;47.34
30873;BME280;17579;42.690;2.586;2023-03-15T10:06:09;97272.63;;;16.21;47.25
30873;BME280;17579;42.690;2.586;2023-03-15T10:08:37;97283.19;;;16.29;47.19
30873;BME280;17579;42.690;2.586;2023-03-15T10:11:06;97275.50;;;16.34;46.91
30873;BME280;17579;42.690;2.586;2023-03-15T10:18:45;97261.25;;;16.57;47.16
30873;BME280;17579;42.690;2.586;2023-03-15T10:23:52;97253.31;;;16.63;46.50
30873;BME280;17579;42.690;2.586;2023-03-15T10:26:22;97266.88;;;16.62;46.14
30873;BME280;17579;42.690;2.586;2023-03-15T10:28:51;97276.34;;;16.65;45.75
30873;BME280;17579;42.690;2.586;2023-03-15T10:31:21;97282.63;;;16.72;46.60
30873;BME280;17579;42.690;2.586;2023-03-15T10:33:49;97280.16;;;16.85;45.89
30873;BME280;17579;42.690;2.586;2023-03-15T10:36:18;97274.91;;;16.92;45.58
30873;BME280;17579;42.690;2.586;2023-03-15T10:38:44;97271.25;;;16.93;45.57
30873;BME280;17579;42.690;2.586;2023-03-15T10:41:13;97294.91;;;16.96;45.31
30873;BME280;17579;42.690;2.586;2023-03-15T10:43:40;97293.34;;;17.02;44.85
30873;BME280;17579;42.690;2.586;2023-03-15T10:46:09;97284.53;;;17.01;45.20
30873;BME280;17579;42.690;2.586;2023-03-15T10:48:38;97296.13;;;17.08;45.49
30873;BME280;17579;42.690;2.586;2023-03-15T10:53:35;97272.84;;;17.39;45.33
30873;BME280;17579;42.690;2.586;2023-03-15T10:56:06;97268.59;;;17.44;44.15
30873;BME280;17579;42.690;2.586;2023-03-15T10:58:41;97260.38;;;17.46;44.23
30873;BME280;17579;42.690;2.586;2023-03-15T11:01:21;97268.41;;;17.46;44.25
30873;BME280;17579;42.690;2.586;2023-03-15T11:03:59;97278.63;;;17.42;44.63
30873;BME280;17579;42.690;2.586;2023-03-15T11:06:27;97275.03;;;17.50;44.87
30873;BME280;17579;42.690;2.586;2023-03-15T11:09:08;97273.66;;;17.54;45.01
30873;BME280;17579;42.690;2.586;2023-03-15T11:14:01;97263.47;;;17.64;44.51
30873;BME280;17579;42.690;2.586;2023-03-15T11:16:33;97257.06;;;17.65;43.86
30873;BME280;17579;42.690;2.586;2023-03-15T11:19:01;97261.59;;;17.65;44.94
30873;BME280;17579;42.690;2.586;2023-03-15T11:21:31;97257.53;;;17.69;44.41
30873;BME280;17579;42.690;2.586;2023-03-15T11:23:59;97269.06;;;17.70;44.59
30873;BME280;17579;42.690;2.586;2023-03-15T11:26:27;97252.63;;;17.73;43.96
30873;BME280;17579;42.690;2.586;2023-03-15T11:28:58;97241.88;;;17.66;43.85
30873;BME280;17579;42.690;2.586;2023-03-15T11:31:27;97239.00;;;17.67;44.23
30873;BME280;17579;42.690;2.586;2023-03-15T11:34:02;97234.84;;;17.65;43.95
30873;BME280;17579;42.690;2.586;2023-03-15T11:36:33;97249.44;;;17.62;44.02
30873;BME280;17579;42.690;2.586;2023-03-15T11:39:04;97246.56;;;17.64;44.02
30873;BME280;17579;42.690;2.586;2023-03-15T11:41:35;97241.91;;;17.73;44.29
30873;BME280;17579;42.690;2.586;2023-03-15T11:46:56;97194.53;;;17.66;43.03
30873;BME280;17579;42.690;2.586;2023-03-15T11:49:34;97206.25;;;17.65;43.81
30873;BME280;17579;42.690;2.586;2023-03-15T11:52:02;97203.53;;;17.80;43.96
30873;BME280;17579;42.690;2.586;2023-03-15T11:54:29;97187.53;;;17.87;43.79
30873;BME280;17579;42.690;2.586;2023-03-15T11:57:00;97182.91;;;17.96;43.35
30873;BME280;17579;42.690;2.586;2023-03-15T11:59:31;97194.53;;;17.88;42.74
30873;BME280;17579;42.690;2.586;2023-03-15T12:02:33;97186.28;;;17.83;43.73
30873;BME280;17579;42.690;2.586;2023-03-15T12:04:52;97182.47;;;17.92;42.83
30873;BME280;17579;42.690;2.586;2023-03-15T12:07:35;97198.19;;;17.80;42.65
30873;BME280;17579;42.690;2.586;2023-03-15T12:10:29;97168.63;;;17.89;42.76
30873;BME280;17579;42.690;2.586;2023-03-15T12:12:58;97178.38;;;17.96;43.19
30873;BME280;17579;42.690;2.586;2023-03-15T12:17:57;97159.34;;;18.13;42.71
30873;BME280;17579;42.690;2.586;2023-03-15T12:20:26;97161.41;;;18.11;43.62
30873;BME280;17579;42.690;2.586;2023-03-15T12:23:11;97152.19;;;18.20;42.91
30873;BME280;17579;42.690;2.586;2023-03-15T12:30:43;97143.78;;;18.23;42.89
30873;BME280;17579;42.690;2.586;2023-03-15T12:33:20;97138.03;;;18.26;43.23
30873;BME280;17579;42.690;2.586;2023-03-15T12:35:47;97148.56;;;18.34;42.74
30873;BME280;17579;42.690;2.586;2023-03-15T12:38:16;97141.78;;;18.39;43.15
30873;BME280;17579;42.690;2.586;2023-03-15T12:43:12;97143.84;;;18.37;42.17
30873;BME280;17579;42.690;2.586;2023-03-15T12:45:40;97129.00;;;18.34;42.63
30873;BME280;17579;42.690;2.586;2023-03-15T12:48:18;97127.97;;;18.35;42.23
30873;BME280;17579;42.690;2.586;2023-03-15T12:51:03;97130.84;;;18.33;42.27
30873;BME280;17579;42.690;2.586;2023-03-15T12:53:39;97121.81;;;18.41;42.72
30873;BME280;17579;42.690;2.586;2023-03-15T12:58:36;97115.50;;;18.56;42.13
30873;BME280;17579;42.690;2.586;2023-03-15T13:01:05;97112.88;;;18.69;42.54
30873;BME280;17579;42.690;2.586;2023-03-15T13:03:34;97116.84;;;18.80;42.05
30873;BME280;17579;42.690;2.586;2023-03-15T13:06:09;97113.56;;;18.84;41.74
30873;BME280;17579;42.690;2.586;2023-03-15T13:11:14;97107.44;;;18.91;41.58
30873;BME280;17579;42.690;2.586;2023-03-15T13:13:47;97112.41;;;19.00;41.96
30873;BME280;17579;42.690;2.586;2023-03-15T13:16:27;97105.19;;;19.08;40.91
30873;BME280;17579;42.690;2.586;2023-03-15T13:21:30;97109.31;;;19.03;40.36
30873;BME280;17579;42.690;2.586;2023-03-15T13:23:58;97093.03;;;19.05;40.39
30873;BME280;17579;42.690;2.586;2023-03-15T13:29:01;97095.31;;;19.15;40.40
30873;BME280;17579;42.690;2.586;2023-03-15T13:31:30;97078.44;;;19.21;40.68
30873;BME280;17579;42.690;2.586;2023-03-15T13:34:06;97100.69;;;19.21;40.79
30873;BME280;17579;42.690;2.586;2023-03-15T13:39:09;97086.06;;;19.24;40.79
30873;BME280;17579;42.690;2.586;2023-03-15T13:41:40;97076.56;;;19.21;40.38
30873;BME280;17579;42.690;2.586;2023-03-15T13:44:16;97093.47;;;19.15;40.91
30873;BME280;17579;42.690;2.586;2023-03-15T13:46:42;97092.88;;;19.27;40.43
30873;BME280;17579;42.690;2.586;2023-03-15T13:49:10;97091.84;;;19.34;40.48
30873;BME280;17579;42.690;2.586;2023-03-15T13:51:37;97088.75;;;19.58;39.77
30873;BME280;17579;42.690;2.586;2023-03-15T13:54:06;97087.09;;;19.70;38.98